Terminal Aerodrome Forecast
Issued by NWS

Home | Current Version | Previous Version | Text Only | Print | Product List | Glossary On
Versions: 1 2 3 4 5 6 7 8 9 10 11 12 13 14 15 16 17 18 19 20 21
000
FTUS41 KOKX 232300
TAFSWF
TAF
KSWF 232327Z 2400/2506 26010KT P6SM SCT040 BKN100 BKN250
      TEMPO 2400/2401 5SM TSRA SCT015 BKN040CB
     FM240100 28008KT 5SM SHRA BR VCTS BKN040CB OVC100
     FM240500 33008KT P6SM SCT040 OVC150
     FM241300 36011G19KT P6SM SCT040 SCT150 SCT250
     FM242100 34008KT P6SM SCT250
     FM250200 28004KT P6SM SKC
      AMD NOT SKED=

USA.gov is the U.S. government's official web portal to all federal, state and local government web resources and services.